createdAt,value
2023-02-22T00:03:08.137Z,8.24
2023-02-22T00:08:11.538Z,6.59
2023-02-22T00:13:14.659Z,5.51
2023-02-22T00:18:26.934Z,5.42
2023-02-22T00:23:31.932Z,6.76
2023-02-22T00:28:34.535Z,7.49
2023-02-22T00:33:39.549Z,7.96
2023-02-22T00:38:42.747Z,8.28
2023-02-22T00:43:45.502Z,8.41
2023-02-22T00:48:48.077Z,8.46
2023-02-22T00:53:50.642Z,8.03
2023-02-22T00:58:53.247Z,6.27
2023-02-22T01:03:55.934Z,5.12
2023-02-22T01:08:58.740Z,4.42
2023-02-22T01:14:01.499Z,4.52
2023-02-22T01:19:06.085Z,5.96
2023-02-22T01:24:10.080Z,6.88
2023-02-22T01:29:15.096Z,7.52
2023-02-22T01:34:18.596Z,7.90
2023-02-22T01:39:21.220Z,8.12
2023-02-22T01:44:41.555Z,7.62
2023-02-22T01:49:48.560Z,5.87
2023-02-22T01:54:56.047Z,4.77
2023-02-22T02:00:10.241Z,4.06
2023-02-22T02:05:14.334Z,3.73
2023-02-22T02:10:17.175Z,4.78
2023-02-22T02:15:36.143Z,5.94
2023-02-22T02:21:09.966Z,6.82
2023-02-22T02:26:32.208Z,7.14
2023-02-22T02:31:51.217Z,5.66
2023-02-22T02:37:07.873Z,4.41
2023-02-22T02:42:16.521Z,3.59
2023-02-22T02:47:27.276Z,3.77
2023-02-22T02:52:33.833Z,5.23
2023-02-22T02:57:38.850Z,6.08
2023-02-22T03:02:56.128Z,6.51
2023-02-22T03:08:24.442Z,6.90
2023-02-22T03:13:29.860Z,7.18
2023-02-22T03:18:46.214Z,6.74
2023-02-22T03:23:56.654Z,5.17
2023-02-22T03:29:05.015Z,4.13
2023-02-22T03:34:13.442Z,3.96
2023-02-22T03:39:18.719Z,5.21
2023-02-22T03:44:27.037Z,5.95
2023-02-22T03:49:55.807Z,6.51
2023-02-22T03:54:59.165Z,7.09
2023-02-22T04:00:06.656Z,6.78
2023-02-22T04:05:10.256Z,5.24
2023-02-22T04:10:15.251Z,4.27
2023-02-22T04:15:21.324Z,3.63
2023-02-22T04:20:25.467Z,3.13
2023-02-22T04:25:28.158Z,3.48
2023-02-22T04:30:31.014Z,5.05
2023-02-22T04:35:35.505Z,6.02
2023-02-22T04:40:38.826Z,6.64
2023-02-22T04:45:41.436Z,7.14
2023-02-22T04:50:44.056Z,6.78
2023-02-22T04:55:46.972Z,5.17
2023-02-22T05:00:49.576Z,4.08
2023-02-22T05:05:52.901Z,4.57
2023-02-22T05:10:58.465Z,5.58
2023-02-22T05:16:01.429Z,5.04
2023-02-22T05:21:04.171Z,3.50
2023-02-22T05:26:07.022Z,3.48
2023-02-22T05:31:09.750Z,4.83
2023-02-22T05:36:12.439Z,4.45
2023-02-22T05:41:15.795Z,3.08
2023-02-22T05:46:18.613Z,3.04
2023-02-22T05:51:21.329Z,4.36
2023-02-22T05:56:26.032Z,5.37
2023-02-22T06:01:28.938Z,5.36
2023-02-22T06:06:31.509Z,3.95
2023-02-22T06:11:34.094Z,3.17
2023-02-22T06:16:36.725Z,2.71
2023-02-22T06:21:41.969Z,2.42
2023-02-22T06:26:44.650Z,2.17
2023-02-22T06:31:47.279Z,2.02
2023-02-22T06:36:50.229Z,2.78
2023-02-22T06:41:55.155Z,4.52
2023-02-22T06:46:59.576Z,5.65
2023-02-22T06:52:06.937Z,5.72
2023-02-22T06:57:10.167Z,4.39
2023-02-22T07:02:17.812Z,3.60
2023-02-22T07:07:25.067Z,3.14
2023-02-22T07:12:27.612Z,2.81
2023-02-22T07:17:30.196Z,2.56
2023-02-22T07:22:32.728Z,2.72
2023-02-22T07:27:36.536Z,4.37
2023-02-22T07:32:39.437Z,5.89
2023-02-22T07:37:42.259Z,5.89
2023-02-22T07:43:02.174Z,4.56
2023-02-22T07:48:05.882Z,3.79
2023-02-22T07:53:18.855Z,3.35
2023-02-22T07:58:24.126Z,3.03
2023-02-22T08:03:27.227Z,2.83
2023-02-22T08:08:29.828Z,2.68
2023-02-22T08:13:32.848Z,2.59
2023-02-22T08:18:38.087Z,3.09
2023-02-22T08:23:40.674Z,4.84
2023-02-22T08:28:43.275Z,6.05
2023-02-22T08:33:49.821Z,6.30
2023-02-22T08:38:52.680Z,5.11
2023-02-22T08:43:55.207Z,4.32
2023-02-22T08:48:57.880Z,3.82
2023-02-22T08:54:00.596Z,3.51
2023-02-22T08:59:03.271Z,3.28
2023-02-22T09:04:05.947Z,3.20
2023-02-22T09:09:08.546Z,3.67
2023-02-22T09:14:11.098Z,5.44
2023-02-22T09:19:16.598Z,6.72
2023-02-22T09:24:19.937Z,6.90
2023-02-22T09:29:24.780Z,5.71
2023-02-22T09:34:29.648Z,4.97
2023-02-22T09:39:37.406Z,4.51
2023-02-22T09:44:53.468Z,4.26
2023-02-22T09:50:05.517Z,4.06
2023-02-22T09:55:45.308Z,3.97
2023-02-22T10:00:53.747Z,3.89
2023-02-22T10:06:19.361Z,3.79
2023-02-22T10:11:28.098Z,3.69
2023-02-22T10:16:40.382Z,4.28
2023-02-22T10:21:59.124Z,6.23
2023-02-22T10:27:03.282Z,6.90
2023-02-22T10:32:12.216Z,5.78
2023-02-22T10:37:34.478Z,5.19
2023-02-22T10:42:37.202Z,5.36
2023-02-22T10:47:40.883Z,6.92
2023-02-22T10:52:43.440Z,7.34
2023-02-22T10:57:49.686Z,6.28
2023-02-22T11:02:57.020Z,5.60
2023-02-22T11:08:17.122Z,5.11
2023-02-22T11:13:28.600Z,4.80
2023-02-22T11:18:35.483Z,4.57
2023-02-22T11:23:44.281Z,4.39
2023-02-22T11:28:57.012Z,4.24
2023-02-22T11:34:02.039Z,4.76
2023-02-22T11:39:22.166Z,6.40
2023-02-22T11:44:31.019Z,5.88
2023-02-22T11:49:39.428Z,5.34
2023-02-22T11:55:06.213Z,5.05
2023-02-22T12:00:39.408Z,4.84
2023-02-22T12:06:06.586Z,4.68
2023-02-22T12:11:57.179Z,4.69
2023-02-22T12:17:02.697Z,4.69
2023-02-22T12:22:12.835Z,4.50
2023-02-22T12:27:22.501Z,4.53
2023-02-22T12:32:47.536Z,6.07
2023-02-22T12:38:14.432Z,6.69
2023-02-22T12:43:26.027Z,5.66
2023-02-22T12:48:47.238Z,5.10
2023-02-22T12:53:57.951Z,4.81
2023-02-22T12:59:10.079Z,4.73
2023-02-22T13:04:20.546Z,4.74
2023-02-22T13:09:53.082Z,4.69
2023-02-22T13:15:20.142Z,4.68
2023-02-22T13:20:36.518Z,4.74
2023-02-22T13:25:49.767Z,4.82
2023-02-22T13:31:24.504Z,4.85
2023-02-22T13:36:59.010Z,4.74
2023-02-22T13:42:29.285Z,4.70
2023-02-22T13:47:53.447Z,4.64
2023-02-22T13:52:58.033Z,4.53
2023-02-22T13:58:07.151Z,4.35
2023-02-22T14:03:12.863Z,4.18
2023-02-22T14:08:18.963Z,4.05
2023-02-22T14:13:29.121Z,3.97
2023-02-22T14:18:41.079Z,3.92
2023-02-22T14:23:46.310Z,3.90
2023-02-22T14:28:55.167Z,3.89
2023-02-22T14:34:09.280Z,3.87
2023-02-22T14:39:43.926Z,3.85
2023-02-22T14:45:03.515Z,3.80
2023-02-22T14:50:30.478Z,3.78
2023-02-22T14:55:40.921Z,3.70
2023-02-22T15:00:47.220Z,3.64
2023-02-22T15:05:50.099Z,3.63
2023-02-22T15:10:54.375Z,3.59
2023-02-22T15:16:02.054Z,3.53
2023-02-22T15:21:11.556Z,3.49
2023-02-22T15:26:37.255Z,3.41
2023-02-22T15:31:46.997Z,3.32
2023-02-22T15:36:57.526Z,3.17
2023-02-22T15:42:09.686Z,3.07
2023-02-22T15:47:21.133Z,3.04
2023-02-22T15:52:26.524Z,3.01
2023-02-22T15:57:30.467Z,2.98
2023-02-22T16:02:39.915Z,3.61
2023-02-22T16:07:47.764Z,5.37
2023-02-22T16:13:02.708Z,6.51
2023-02-22T16:18:37.682Z,6.06
2023-02-22T16:24:15.428Z,4.93
2023-02-22T16:29:26.521Z,4.29
2023-02-22T16:34:30.207Z,3.83
2023-02-22T16:39:35.995Z,3.54
2023-02-22T16:44:39.766Z,3.29
2023-02-22T16:49:45.028Z,3.07
2023-02-22T16:54:49.296Z,2.91
2023-02-22T16:59:52.829Z,2.80
2023-02-22T17:04:56.329Z,2.71
2023-02-22T17:09:59.640Z,2.61
2023-02-22T17:15:03.495Z,3.27
2023-02-22T17:20:11.497Z,4.89
2023-02-22T17:25:25.447Z,5.87
2023-02-22T17:30:28.583Z,5.33
2023-02-22T17:35:36.605Z,4.07
2023-02-22T17:40:40.150Z,3.33
2023-02-22T17:45:43.192Z,2.93
2023-02-22T17:50:49.302Z,3.91
2023-02-22T17:55:52.979Z,5.20
2023-02-22T18:00:59.022Z,5.23
2023-02-22T18:06:01.819Z,3.94
2023-02-22T18:11:05.253Z,3.15
2023-02-22T18:16:10.369Z,2.83
2023-02-22T18:21:15.544Z,4.09
2023-02-22T18:26:21.904Z,5.40
2023-02-22T18:31:25.312Z,5.63
2023-02-22T18:36:29.258Z,4.37
2023-02-22T18:41:31.850Z,3.57
2023-02-22T18:46:36.871Z,2.99
2023-02-22T18:51:43.352Z,2.56
2023-02-22T18:56:45.997Z,2.30
2023-02-22T19:01:49.261Z,2.82
2023-02-22T19:06:56.530Z,4.39
2023-02-22T19:11:59.188Z,5.31
2023-02-22T19:17:02.978Z,5.97
2023-02-22T19:22:05.840Z,5.78
2023-02-22T19:27:09.003Z,4.22
2023-02-22T19:32:15.016Z,3.29
2023-02-22T19:37:18.701Z,2.72
2023-02-22T19:42:21.630Z,2.34
2023-02-22T19:47:24.350Z,2.95
2023-02-22T19:52:28.890Z,4.85
2023-02-22T19:57:32.231Z,5.60
2023-02-22T20:02:34.801Z,5.49
2023-02-22T20:07:37.507Z,4.07
2023-02-22T20:12:40.097Z,3.15
2023-02-22T20:17:44.874Z,2.58
2023-02-22T20:22:47.852Z,2.58
2023-02-22T20:27:50.465Z,4.57
2023-02-22T20:32:53.283Z,5.43
2023-02-22T20:37:56.327Z,5.35
2023-02-22T20:42:59.296Z,3.91
2023-02-22T20:48:02.904Z,2.97
2023-02-22T20:53:05.609Z,2.34
2023-02-22T20:58:08.254Z,3.19
2023-02-22T21:03:10.989Z,5.32
2023-02-22T21:08:15.585Z,5.19
2023-02-22T21:13:18.221Z,3.61
2023-02-22T21:18:23.350Z,2.62
2023-02-22T21:23:27.287Z,1.97
2023-02-22T21:28:49.943Z,2.67
2023-02-22T21:33:55.308Z,5.41
2023-02-22T21:39:00.836Z,6.98
2023-02-22T21:44:03.519Z,5.81
2023-02-22T21:49:06.155Z,3.86
2023-02-22T21:54:11.976Z,2.79
2023-02-22T21:59:20.378Z,2.07
2023-02-22T22:04:31.370Z,1.51
2023-02-22T22:09:37.432Z,1.11
2023-02-22T22:14:40.512Z,1.76
2023-02-22T22:19:48.902Z,4.51
2023-02-22T22:24:53.787Z,5.56
2023-02-22T22:29:57.316Z,5.39
2023-02-22T22:35:00.525Z,3.62
2023-02-22T22:40:05.356Z,2.50
2023-02-22T22:45:11.651Z,1.81
2023-02-22T22:50:18.774Z,1.27
2023-02-22T22:55:24.114Z,0.97
2023-02-22T23:00:34.813Z,3.07
2023-02-22T23:05:39.911Z,5.89
2023-02-22T23:10:42.616Z,6.07
2023-02-22T23:15:48.655Z,3.98
2023-02-22T23:20:55.442Z,2.71
2023-02-22T23:26:18.143Z,1.89
2023-02-22T23:31:21.178Z,1.23
2023-02-22T23:36:26.411Z,0.75
2023-02-22T23:41:29.900Z,2.59
2023-02-22T23:46:32.960Z,4.85
2023-02-22T23:51:41.898Z,5.09
2023-02-22T23:56:56.069Z,3.14
